createdAt,value
2018-08-18T00:01:27.027Z,64.02
2018-08-18T00:04:37.068Z,64.32
2018-08-18T00:07:11.726Z,63.90
2018-08-18T00:09:46.001Z,64.09
2018-08-18T00:12:25.880Z,63.81
2018-08-18T00:15:00.811Z,64.19
2018-08-18T00:17:36.077Z,64.36
2018-08-18T00:20:12.874Z,64.58
2018-08-18T00:22:47.604Z,64.69
2018-08-18T00:25:22.039Z,64.80
2018-08-18T00:27:56.770Z,65.02
2018-08-18T00:30:31.523Z,65.82
2018-08-18T00:33:06.575Z,65.95
2018-08-18T00:35:41.517Z,64.44
2018-08-18T00:38:16.607Z,64.83
2018-08-18T00:40:51.084Z,64.77
2018-08-18T00:43:25.968Z,63.92
2018-08-18T00:46:00.815Z,63.95
2018-08-18T00:48:35.730Z,63.65
2018-08-18T00:51:10.263Z,63.28
2018-08-18T00:53:46.359Z,64.15
2018-08-18T00:56:21.136Z,63.67
2018-08-18T00:58:56.628Z,63.42
2018-08-18T01:01:30.975Z,62.55
2018-08-18T01:04:08.560Z,63.17
2018-08-18T01:06:43.572Z,62.96
2018-08-18T01:09:17.909Z,62.68
2018-08-18T01:11:52.816Z,63.14
2018-08-18T01:14:28.148Z,63.42
2018-08-18T01:17:02.662Z,63.07
2018-08-18T01:19:37.314Z,62.72
2018-08-18T01:22:12.208Z,63.14
2018-08-18T01:24:47.139Z,64.31
2018-08-18T01:27:21.632Z,63.52
2018-08-18T01:30:01.621Z,63.37
2018-08-18T01:32:35.940Z,64.03
2018-08-18T01:35:11.270Z,63.40
2018-08-18T01:37:45.833Z,63.70
2018-08-18T01:40:20.275Z,63.81
2018-08-18T01:42:54.681Z,63.78
2018-08-18T01:45:29.136Z,64.61
2018-08-18T01:48:04.364Z,64.25
2018-08-18T01:50:38.836Z,65.06
2018-08-18T01:53:13.401Z,64.92
2018-08-18T01:55:47.850Z,64.75
2018-08-18T01:58:22.991Z,64.82
2018-08-18T02:00:57.882Z,65.37
2018-08-18T02:03:32.955Z,65.47
2018-08-18T02:06:07.668Z,65.10
2018-08-18T02:08:55.168Z,65.08
2018-08-18T02:11:30.240Z,65.52
2018-08-18T02:14:05.040Z,66.67
2018-08-18T02:16:40.027Z,66.34
2018-08-18T02:19:14.557Z,66.89
2018-08-18T02:21:49.073Z,66.63
2018-08-18T02:24:23.388Z,66.95
2018-08-18T02:26:57.724Z,66.75
2018-08-18T02:29:32.665Z,66.41
2018-08-18T02:32:17.330Z,66.71
2018-08-18T02:34:51.832Z,67.52
2018-08-18T02:37:27.294Z,67.03
2018-08-18T02:40:02.374Z,67.69
2018-08-18T02:42:37.565Z,67.65
2018-08-18T02:45:13.944Z,68.37
2018-08-18T02:47:49.285Z,68.43
2018-08-18T02:50:24.039Z,68.55
2018-08-18T02:52:58.507Z,68.39
2018-08-18T02:55:33.375Z,69.01
2018-08-18T02:58:08.181Z,68.47
2018-08-18T03:00:43.303Z,68.72
2018-08-18T03:03:18.378Z,68.88
2018-08-18T03:05:53.459Z,69.70
2018-08-18T03:08:28.025Z,69.48
2018-08-18T03:11:02.896Z,69.25
2018-08-18T03:13:37.244Z,69.86
2018-08-18T03:16:12.440Z,69.43
2018-08-18T03:18:56.276Z,70.18
2018-08-18T03:21:36.096Z,70.32
2018-08-18T03:24:12.561Z,70.06
2018-08-18T03:26:48.731Z,70.49
2018-08-18T03:29:24.496Z,69.93
2018-08-18T03:31:59.688Z,70.13
2018-08-18T03:34:34.540Z,70.60
2018-08-18T03:37:24.761Z,70.20
2018-08-18T03:39:59.956Z,70.47
2018-08-18T03:42:41.912Z,71.18
2018-08-18T03:45:16.492Z,70.78
2018-08-18T03:47:51.115Z,71.55
2018-08-18T03:50:46.671Z,71.25
2018-08-18T03:53:21.189Z,71.83
2018-08-18T03:55:55.942Z,71.76
2018-08-18T03:58:40.248Z,71.74
2018-08-18T04:01:14.997Z,71.89
2018-08-18T04:03:49.544Z,72.58
2018-08-18T04:06:24.485Z,72.30
2018-08-18T04:08:59.229Z,72.72
2018-08-18T04:11:34.025Z,73.03
2018-08-18T04:14:08.800Z,73.12
2018-08-18T04:16:48.140Z,73.30
2018-08-18T04:19:22.564Z,72.54
2018-08-18T04:21:57.185Z,72.61
2018-08-18T04:24:36.366Z,72.95
2018-08-18T04:27:11.320Z,73.32
2018-08-18T04:29:45.932Z,73.19
2018-08-18T04:32:20.788Z,74.25
2018-08-18T04:34:55.543Z,73.31
2018-08-18T04:37:30.016Z,72.96
2018-08-18T04:40:04.912Z,73.95
2018-08-18T04:42:39.576Z,74.20
2018-08-18T04:45:15.668Z,74.17
2018-08-18T04:47:50.195Z,74.23
2018-08-18T04:50:25.098Z,74.34
2018-08-18T04:52:59.738Z,74.59
2018-08-18T04:55:34.228Z,74.98
2018-08-18T04:58:08.938Z,74.29
2018-08-18T05:00:43.280Z,74.38
2018-08-18T05:03:17.837Z,73.96
2018-08-18T05:05:52.564Z,74.50
2018-08-18T05:08:28.304Z,74.01
2018-08-18T05:11:02.795Z,74.10
2018-08-18T05:13:37.720Z,74.25
2018-08-18T05:16:12.381Z,73.74
2018-08-18T05:18:47.029Z,74.01
2018-08-18T05:21:23.693Z,73.72
2018-08-18T05:24:02.861Z,73.55
2018-08-18T05:26:37.641Z,73.55
2018-08-18T05:29:12.341Z,73.57
2018-08-18T05:31:46.690Z,73.37
2018-08-18T05:34:21.400Z,73.89
2018-08-18T05:36:56.061Z,74.00
2018-08-18T05:39:31.108Z,73.35
2018-08-18T05:42:05.901Z,74.06
2018-08-18T05:44:41.764Z,73.41
2018-08-18T05:47:16.452Z,73.08
2018-08-18T05:49:51.140Z,74.00
2018-08-18T05:52:25.825Z,72.99
2018-08-18T05:55:00.831Z,71.72
2018-08-18T05:57:35.452Z,72.91
2018-08-18T06:00:16.456Z,72.54
2018-08-18T06:02:56.912Z,72.01
2018-08-18T06:05:32.321Z,71.06
2018-08-18T06:08:06.966Z,71.06
2018-08-18T06:10:41.446Z,69.10
2018-08-18T06:13:22.168Z,68.65
2018-08-18T06:16:09.082Z,70.58
2018-08-18T06:18:44.672Z,67.05
2018-08-18T06:21:19.294Z,67.49
2018-08-18T06:23:53.926Z,65.85
2018-08-18T06:26:28.772Z,67.69
2018-08-18T06:29:03.380Z,66.82
2018-08-18T06:32:10.679Z,67.62
2018-08-18T06:34:45.591Z,67.36
2018-08-18T06:37:25.336Z,65.35
2018-08-18T06:40:00.488Z,65.15
2018-08-18T06:42:38.728Z,65.06
2018-08-18T06:45:16.516Z,67.47
2018-08-18T06:47:51.502Z,65.94
2018-08-18T06:50:30.983Z,65.64
2018-08-18T06:53:05.528Z,67.20
2018-08-18T06:55:40.458Z,65.81
2018-08-18T06:58:14.745Z,65.59
2018-08-18T07:00:49.213Z,65.80
2018-08-18T07:03:38.825Z,66.32
2018-08-18T07:06:23.313Z,64.50
2018-08-18T07:08:58.960Z,65.12
2018-08-18T07:11:33.612Z,65.79
2018-08-18T07:14:07.978Z,64.98
2018-08-18T07:16:42.633Z,63.59
2018-08-18T07:19:17.364Z,63.96
2018-08-18T07:21:52.160Z,62.23
2018-08-18T07:24:26.669Z,62.56
2018-08-18T07:27:01.111Z,64.42
2018-08-18T07:29:46.765Z,61.10
2018-08-18T07:32:21.264Z,61.40
2018-08-18T07:34:55.585Z,62.50
2018-08-18T07:37:30.309Z,61.02
2018-08-18T07:40:07.207Z,62.01
2018-08-18T07:42:43.252Z,60.83
2018-08-18T07:45:18.779Z,59.71
2018-08-18T07:47:57.296Z,61.23
2018-08-18T07:50:32.914Z,63.18
2018-08-18T07:53:08.288Z,61.30
2018-08-18T07:55:45.353Z,62.48
2018-08-18T07:58:22.496Z,59.51
2018-08-18T08:00:57.521Z,61.49
2018-08-18T08:03:32.389Z,57.65
2018-08-18T08:06:06.781Z,60.28
2018-08-18T08:08:49.029Z,58.03
2018-08-18T08:11:25.008Z,61.85
2018-08-18T08:13:59.640Z,57.90
2018-08-18T08:16:34.379Z,57.23
2018-08-18T08:19:08.893Z,59.36
2018-08-18T08:21:43.977Z,58.92
2018-08-18T08:24:18.618Z,60.62
2018-08-18T08:26:53.456Z,58.12
2018-08-18T08:29:32.204Z,56.73
2018-08-18T08:32:08.729Z,56.32
2018-08-18T08:34:44.936Z,58.61
2018-08-18T08:37:19.660Z,57.82
2018-08-18T08:39:54.860Z,55.10
2018-08-18T08:42:29.507Z,55.17
2018-08-18T08:45:03.932Z,54.84
2018-08-18T08:47:38.470Z,54.82
2018-08-18T08:50:15.960Z,55.13
2018-08-18T08:52:57.274Z,54.74
2018-08-18T08:55:32.612Z,54.61
2018-08-18T08:58:06.920Z,55.01
2018-08-18T09:00:42.198Z,57.28
2018-08-18T09:03:16.933Z,53.85
2018-08-18T09:05:51.224Z,53.45
2018-08-18T09:08:25.910Z,53.64
2018-08-18T09:11:00.355Z,51.49
2018-08-18T09:13:35.028Z,57.24
2018-08-18T09:16:10.411Z,57.07
2018-08-18T09:18:45.064Z,51.28
2018-08-18T09:21:20.152Z,53.26
2018-08-18T09:23:54.781Z,50.75
2018-08-18T09:26:29.459Z,49.40
2018-08-18T09:29:04.880Z,51.57
2018-08-18T09:31:40.259Z,55.20
2018-08-18T09:34:15.160Z,54.24
2018-08-18T09:36:50.264Z,52.09
2018-08-18T09:39:29.327Z,53.47
2018-08-18T09:42:09.349Z,53.01
2018-08-18T09:44:46.144Z,51.78
2018-08-18T09:47:20.770Z,53.62
2018-08-18T09:49:55.452Z,52.91
2018-08-18T09:52:30.247Z,51.42
2018-08-18T09:55:04.780Z,51.98
2018-08-18T09:57:39.520Z,53.11
2018-08-18T10:00:14.928Z,55.74
2018-08-18T10:02:50.136Z,54.03
2018-08-18T10:05:24.770Z,55.72
2018-08-18T10:07:59.561Z,56.87
2018-08-18T10:10:35.476Z,59.57
2018-08-18T10:13:10.164Z,57.75
2018-08-18T10:15:44.841Z,56.78
2018-08-18T10:18:19.865Z,55.77
2018-08-18T10:20:54.335Z,55.59
2018-08-18T10:23:29.293Z,54.86
2018-08-18T10:26:04.558Z,57.02
2018-08-18T10:28:40.328Z,55.04
2018-08-18T10:31:15.008Z,54.25
2018-08-18T10:33:50.183Z,57.97
2018-08-18T10:36:24.988Z,55.81
2018-08-18T10:38:59.745Z,52.30
2018-08-18T10:41:39.021Z,53.80
2018-08-18T10:44:14.300Z,52.41
2018-08-18T10:46:58.684Z,54.45
2018-08-18T10:49:44.953Z,53.85
2018-08-18T10:52:31.824Z,53.41
2018-08-18T10:55:09.161Z,57.07
2018-08-18T10:57:54.167Z,52.49
2018-08-18T11:00:30.173Z,49.65
2018-08-18T11:03:05.824Z,54.40
2018-08-18T11:05:40.340Z,51.34
2018-08-18T11:08:14.842Z,47.98
2018-08-18T11:10:49.452Z,55.67
2018-08-18T11:13:23.916Z,50.44
2018-08-18T11:15:58.381Z,42.12
2018-08-18T11:18:33.268Z,46.08
2018-08-18T11:21:07.742Z,45.14
2018-08-18T11:23:42.636Z,44.99
2018-08-18T11:26:17.269Z,41.17
2018-08-18T11:28:51.911Z,43.14
2018-08-18T11:31:26.597Z,47.21
2018-08-18T11:34:00.965Z,43.52
2018-08-18T11:36:35.268Z,43.14
2018-08-18T11:39:09.746Z,41.14
2018-08-18T11:41:44.647Z,41.84
2018-08-18T11:44:19.048Z,43.33
2018-08-18T11:46:53.748Z,40.87
2018-08-18T11:49:28.459Z,43.96
2018-08-18T11:52:02.885Z,43.16
2018-08-18T11:54:37.663Z,45.55
2018-08-18T11:57:12.320Z,45.32
2018-08-18T11:59:46.709Z,44.72
2018-08-18T12:02:21.529Z,48.72
2018-08-18T12:04:55.912Z,46.25
2018-08-18T12:07:30.760Z,46.72
2018-08-18T12:10:05.388Z,43.88
2018-08-18T12:12:40.285Z,43.74
2018-08-18T12:15:14.634Z,47.28
2018-08-18T12:17:56.860Z,39.00
2018-08-18T12:20:31.752Z,39.11
2018-08-18T12:23:06.813Z,41.55
2018-08-18T12:25:41.711Z,41.63
2018-08-18T12:28:16.365Z,45.21
2018-08-18T12:30:51.025Z,40.46
2018-08-18T12:33:25.824Z,43.54
2018-08-18T12:36:00.875Z,41.12
2018-08-18T12:38:36.049Z,41.47
2018-08-18T12:41:10.706Z,44.36
2018-08-18T12:43:48.306Z,39.03
2018-08-18T12:46:24.536Z,42.69
2018-08-18T12:48:59.315Z,38.69
2018-08-18T12:51:34.265Z,38.93
2018-08-18T12:54:09.063Z,40.83
2018-08-18T12:56:47.155Z,40.24
2018-08-18T12:59:21.851Z,40.23
2018-08-18T13:01:56.233Z,41.52
2018-08-18T13:04:30.821Z,36.92
2018-08-18T13:07:09.443Z,39.34
2018-08-18T13:09:55.513Z,40.67
2018-08-18T13:12:29.840Z,40.06
2018-08-18T13:15:04.524Z,40.51
2018-08-18T13:17:39.351Z,40.40
2018-08-18T13:20:18.813Z,42.35
2018-08-18T13:22:58.360Z,39.73
2018-08-18T13:25:33.314Z,42.43
2018-08-18T13:28:08.210Z,39.31
2018-08-18T13:30:42.890Z,42.40
2018-08-18T13:33:17.415Z,39.15
2018-08-18T13:35:52.066Z,39.58
2018-08-18T13:38:30.826Z,42.03
2018-08-18T13:41:05.722Z,39.72
2018-08-18T13:43:46.496Z,41.16
2018-08-18T13:46:31.036Z,38.06
2018-08-18T13:49:07.547Z,44.43
2018-08-18T13:51:47.255Z,39.42
2018-08-18T13:54:22.994Z,37.59
2018-08-18T13:56:58.349Z,38.60
2018-08-18T13:59:40.744Z,36.36
2018-08-18T14:02:16.658Z,37.69
2018-08-18T14:04:54.660Z,37.09
2018-08-18T14:07:29.320Z,38.30
2018-08-18T14:10:04.170Z,40.23
2018-08-18T14:12:44.150Z,34.64
2018-08-18T14:15:21.164Z,36.64
2018-08-18T14:18:01.612Z,39.86
2018-08-18T14:20:40.757Z,39.87
2018-08-18T14:23:15.804Z,37.87
2018-08-18T14:25:52.037Z,37.82
2018-08-18T14:28:27.201Z,37.60
2018-08-18T14:31:02.799Z,41.42
2018-08-18T14:33:38.084Z,36.44
2018-08-18T14:36:14.839Z,38.64
2018-08-18T14:38:50.294Z,34.82
2018-08-18T14:41:42.239Z,35.93
2018-08-18T14:44:27.847Z,40.10
2018-08-18T14:47:04.715Z,36.34
2018-08-18T14:52:28.501Z,41.45
2018-08-18T14:55:03.767Z,38.57
2018-08-18T14:57:45.895Z,41.26
2018-08-18T15:00:23.225Z,37.04
2018-08-18T15:03:00.140Z,37.60
2018-08-18T15:05:35.012Z,37.09
2018-08-18T15:08:09.792Z,39.29
2018-08-18T15:10:45.824Z,35.91
2018-08-18T15:13:20.570Z,36.65
2018-08-18T15:15:55.191Z,38.29
2018-08-18T15:18:30.584Z,33.35
2018-08-18T15:21:05.917Z,35.53
2018-08-18T15:23:40.696Z,33.07
2018-08-18T15:26:15.189Z,34.21
2018-08-18T15:28:49.633Z,33.27
2018-08-18T15:31:24.077Z,33.07
2018-08-18T15:33:58.737Z,36.11
2018-08-18T15:36:33.642Z,37.47
2018-08-18T15:39:11.865Z,35.50
2018-08-18T15:41:47.683Z,36.91
2018-08-18T15:44:24.768Z,35.27
2018-08-18T15:46:59.975Z,35.45
2018-08-18T15:49:35.055Z,35.08
2018-08-18T15:52:14.400Z,40.37
2018-08-18T15:54:50.159Z,37.46
2018-08-18T15:57:25.217Z,35.67
2018-08-18T15:59:59.480Z,38.58
2018-08-18T16:02:34.565Z,34.56
2018-08-18T16:05:12.478Z,34.93
2018-08-18T16:07:47.049Z,36.57
2018-08-18T16:10:33.728Z,35.81
2018-08-18T16:13:09.011Z,35.27
2018-08-18T16:15:43.558Z,36.05
2018-08-18T16:18:19.279Z,39.15
2018-08-18T16:20:56.897Z,38.49
2018-08-18T16:23:36.478Z,39.82
2018-08-18T16:26:12.865Z,37.97
2018-08-18T16:28:47.616Z,35.38
2018-08-18T16:31:22.124Z,36.03
2018-08-18T16:33:57.162Z,35.92
2018-08-18T16:36:37.240Z,37.18
2018-08-18T16:39:12.419Z,38.22
2018-08-18T16:41:47.224Z,37.81
2018-08-18T16:44:21.604Z,38.59
2018-08-18T16:46:56.245Z,39.54
2018-08-18T16:52:18.861Z,37.94
2018-08-18T16:54:54.783Z,39.04
2018-08-18T16:57:29.461Z,39.49
2018-08-18T17:00:04.228Z,40.86
2018-08-18T17:02:39.347Z,40.48
2018-08-18T17:05:14.343Z,42.14
2018-08-18T17:07:48.949Z,43.85
2018-08-18T17:10:23.878Z,42.97
2018-08-18T17:12:59.552Z,41.36
2018-08-18T17:15:34.320Z,43.80
2018-08-18T17:18:09.280Z,43.71
2018-08-18T17:20:48.112Z,42.86
2018-08-18T17:23:22.500Z,44.20
2018-08-18T17:25:57.345Z,44.14
2018-08-18T17:28:32.901Z,43.11
2018-08-18T17:31:07.797Z,46.93
2018-08-18T17:33:42.212Z,47.99
2018-08-18T17:36:16.625Z,48.09
2018-08-18T17:38:51.024Z,47.33
2018-08-18T17:41:26.048Z,49.40
2018-08-18T17:44:00.929Z,49.22
2018-08-18T17:46:38.977Z,50.80
2018-08-18T17:49:13.796Z,50.19
2018-08-18T17:52:05.304Z,50.47
2018-08-18T17:54:39.962Z,51.39
2018-08-18T17:57:14.307Z,51.57
2018-08-18T17:59:49.148Z,51.84
2018-08-18T18:02:24.531Z,53.84
2018-08-18T18:05:04.508Z,54.79
2018-08-18T18:07:39.056Z,54.01
2018-08-18T18:10:13.385Z,55.10
2018-08-18T18:12:48.249Z,54.93
2018-08-18T18:15:42.611Z,56.00
2018-08-18T18:18:18.879Z,55.37
2018-08-18T18:20:54.745Z,55.83
2018-08-18T18:23:29.596Z,56.63
2018-08-18T18:26:04.280Z,56.53
2018-08-18T18:28:38.749Z,56.76
2018-08-18T18:31:13.199Z,56.75
2018-08-18T18:33:52.038Z,56.80
2018-08-18T18:36:26.464Z,57.47
2018-08-18T18:39:00.994Z,58.30
2018-08-18T18:41:36.059Z,57.53
2018-08-18T18:44:10.612Z,57.98
2018-08-18T18:46:45.000Z,57.21
2018-08-18T18:49:30.814Z,58.62
2018-08-18T18:52:05.525Z,59.18
2018-08-18T18:54:40.614Z,60.48
2018-08-18T18:57:15.357Z,59.84
2018-08-18T18:59:55.801Z,59.67
2018-08-18T19:05:29.098Z,60.61
2018-08-18T19:08:09.810Z,62.11
2018-08-18T19:10:44.847Z,62.05
2018-08-18T19:13:19.658Z,61.82
2018-08-18T19:15:54.368Z,61.73
2018-08-18T19:18:29.550Z,63.20
2018-08-18T19:21:04.272Z,63.03
2018-08-18T19:23:38.982Z,62.65
2018-08-18T19:26:13.376Z,63.55
2018-08-18T19:28:48.114Z,63.20
2018-08-18T19:34:11.398Z,62.58
2018-08-18T19:36:57.113Z,62.58
2018-08-18T19:39:32.776Z,62.70
2018-08-18T19:42:21.951Z,62.76
2018-08-18T19:44:56.892Z,63.19
2018-08-18T19:47:38.403Z,63.54
2018-08-18T19:50:14.085Z,63.77
2018-08-18T19:52:57.595Z,63.86
2018-08-18T19:55:33.439Z,62.80
2018-08-18T19:58:08.316Z,62.76
2018-08-18T20:00:42.803Z,64.00
2018-08-18T20:03:18.777Z,63.67
2018-08-18T20:05:53.176Z,63.51
2018-08-18T20:08:28.374Z,64.29
2018-08-18T20:11:03.300Z,64.96
2018-08-18T20:13:38.088Z,64.52
2018-08-18T20:16:12.664Z,65.28
2018-08-18T20:18:47.358Z,65.34
2018-08-18T20:21:21.882Z,66.25
2018-08-18T20:23:56.541Z,66.17
2018-08-18T20:26:31.544Z,66.76
2018-08-18T20:29:13.178Z,66.80
2018-08-18T20:32:00.460Z,66.71
2018-08-18T20:34:35.050Z,66.57
2018-08-18T20:37:09.933Z,66.81
2018-08-18T20:39:44.823Z,67.25
2018-08-18T20:42:25.708Z,68.41
2018-08-18T20:45:02.767Z,67.16
2018-08-18T20:47:39.931Z,68.66
2018-08-18T20:50:22.583Z,68.03
2018-08-18T20:53:07.364Z,68.58
2018-08-18T20:55:45.163Z,68.08
2018-08-18T20:58:23.297Z,68.97
2018-08-18T21:00:58.445Z,68.30
2018-08-18T21:03:47.445Z,68.20
2018-08-18T21:06:22.425Z,68.13
2018-08-18T21:09:09.804Z,68.47
2018-08-18T21:11:44.340Z,68.88
2018-08-18T21:14:18.657Z,68.57
2018-08-18T21:16:53.453Z,69.50
2018-08-18T21:19:28.204Z,69.25
2018-08-18T21:22:03.322Z,69.90
2018-08-18T21:24:37.740Z,69.94
2018-08-18T21:27:11.993Z,69.35
2018-08-18T21:29:46.761Z,70.08
2018-08-18T21:32:22.401Z,69.95
2018-08-18T21:34:56.901Z,70.40
2018-08-18T21:37:31.368Z,70.35
2018-08-18T21:40:07.293Z,70.58
2018-08-18T21:42:42.548Z,69.91
2018-08-18T21:45:17.679Z,70.81
2018-08-18T21:47:52.192Z,69.89
2018-08-18T21:50:34.046Z,71.14
2018-08-18T21:53:08.611Z,71.16
2018-08-18T21:55:47.472Z,70.74
2018-08-18T21:58:24.981Z,70.71
2018-08-18T22:01:05.196Z,71.39
2018-08-18T22:03:39.628Z,71.13
2018-08-18T22:06:14.681Z,71.26
2018-08-18T22:08:49.152Z,71.55
2018-08-18T22:11:24.293Z,71.67
2018-08-18T22:13:58.932Z,71.71
2018-08-18T22:16:33.443Z,71.28
2018-08-18T22:19:08.249Z,71.42
2018-08-18T22:21:42.693Z,71.81
2018-08-18T22:26:51.251Z,71.64
2018-08-18T22:29:26.436Z,72.34
2018-08-18T22:32:10.424Z,71.63
2018-08-18T22:34:49.466Z,72.39
2018-08-18T22:37:25.729Z,71.99
2018-08-18T22:40:02.612Z,72.02
2018-08-18T22:42:36.936Z,72.39
2018-08-18T22:48:22.101Z,72.82
2018-08-18T22:50:56.737Z,73.11
2018-08-18T22:53:31.436Z,72.23
2018-08-18T22:56:15.343Z,72.59
2018-08-18T22:58:59.952Z,72.28
2018-08-18T23:01:39.980Z,72.54
2018-08-18T23:04:28.540Z,73.12
2018-08-18T23:07:03.832Z,72.63
2018-08-18T23:09:40.920Z,73.27
2018-08-18T23:12:16.299Z,72.18
2018-08-18T23:14:51.529Z,72.80
2018-08-18T23:17:33.630Z,72.68
2018-08-18T23:20:08.887Z,72.18
2018-08-18T23:22:53.597Z,72.45
2018-08-18T23:25:29.425Z,72.63
2018-08-18T23:28:04.229Z,72.87
2018-08-18T23:30:39.824Z,72.40
2018-08-18T23:33:14.535Z,72.56
2018-08-18T23:35:48.960Z,72.37
2018-08-18T23:38:23.828Z,72.93
2018-08-18T23:41:03.745Z,73.37
2018-08-18T23:43:38.508Z,73.65
2018-08-18T23:46:12.905Z,73.14
2018-08-18T23:48:47.461Z,73.30
2018-08-18T23:51:28.708Z,73.47
2018-08-18T23:54:08.368Z,73.53
2018-08-18T23:56:43.356Z,73.85
2018-08-18T23:59:17.694Z,73.93
